Time;durP1;ratioP1;P1;durP2;ratioP2;P2;SDS_P1;SDS_P2;PMS_P1;PMS_P2;Temp;Humidity;BMP_temperature;BMP_pressure;BME280_temperature;BME280_humidity;BME280_pressure;Samples;Min_cycle;Max_cycle;Signal;HPM_P1;HPM_P2
2022/03/18 00:00:01;;;;;;;21.77;16.20;;;6.90;99.90;;;;;;5054362;28;20327;-68
2022/03/18 00:02:28;;;;;;;22.35;17.08;;;7.00;99.90;;;;;;5054407;28;20250;-68
2022/03/18 00:04:56;;;;;;;21.77;16.38;;;6.90;99.90;;;;;;5054260;28;20308;-68
2022/03/18 00:07:23;;;;;;;24.08;17.38;;;6.80;99.90;;;;;;5054441;28;20310;-68
2022/03/18 00:09:51;;;;;;;22.95;17.52;;;6.80;99.90;;;;;;5053815;28;20660;-68
2022/03/18 00:12:18;;;;;;;20.52;16.10;;;6.80;99.90;;;;;;5054186;28;20571;-69
2022/03/18 00:14:45;;;;;;;20.02;14.80;;;6.80;99.90;;;;;;5053824;28;20291;-69
2022/03/18 00:17:12;;;;;;;21.42;16.05;;;6.80;99.90;;;;;;5053754;28;20754;-69
2022/03/18 00:19:40;;;;;;;23.38;16.15;;;6.80;99.90;;;;;;5054062;28;20259;-69
2022/03/18 00:22:10;;;;;;;18.63;14.63;;;6.80;99.90;;;;;;5054068;28;20205;-69
2022/03/18 00:24:36;;;;;;;17.83;14.15;;;6.80;99.90;;;;;;5053553;28;20204;-69
2022/03/18 00:27:05;;;;;;;18.98;15.63;;;6.80;99.90;;;;;;5053589;28;20786;-69
2022/03/18 00:29:32;;;;;;;19.73;15.82;;;6.70;99.90;;;;;;5053506;28;20220;-69
2022/03/18 00:32:00;;;;;;;15.90;13.57;;;6.70;99.90;;;;;;5053933;28;20569;-69
2022/03/18 00:34:27;;;;;;;16.75;14.10;;;6.70;99.90;;;;;;5053748;28;20196;-68
2022/03/18 00:36:54;;;;;;;17.17;13.25;;;6.70;99.90;;;;;;5053012;28;20427;-68
2022/03/18 00:39:22;;;;;;;17.55;13.25;;;6.70;99.90;;;;;;5053788;28;20227;-68
2022/03/18 00:41:49;;;;;;;17.95;14.23;;;6.70;99.90;;;;;;5053804;28;20291;-68
2022/03/18 00:44:16;;;;;;;19.27;14.98;;;6.70;99.90;;;;;;5053636;28;20196;-68
2022/03/18 00:46:44;;;;;;;18.10;14.20;;;6.60;99.90;;;;;;5053230;28;20226;-68
2022/03/18 00:52:05;;;;;;;17.48;13.43;;;6.60;99.90;;;;;;5053671;28;20262;-68
2022/03/18 00:54:34;;;;;;;16.35;13.88;;;6.70;99.90;;;;;;5053113;28;20626;-69
2022/03/18 00:57:01;;;;;;;17.73;13.60;;;6.70;99.90;;;;;;5053399;28;20203;-69
2022/03/18 00:59:29;;;;;;;17.02;13.55;;;6.60;99.90;;;;;;5053401;28;20217;-69
2022/03/18 01:01:56;;;;;;;16.30;12.98;;;6.60;99.90;;;;;;5053259;28;20205;-69
2022/03/18 01:04:23;;;;;;;18.92;14.60;;;6.60;99.90;;;;;;5053286;28;20197;-69
2022/03/18 01:06:52;;;;;;;17.40;14.05;;;6.60;99.90;;;;;;5053299;28;20247;-69
2022/03/18 01:09:19;;;;;;;17.50;13.95;;;6.50;99.90;;;;;;5053490;28;20270;-69
2022/03/18 01:11:47;;;;;;;17.20;13.40;;;6.50;99.90;;;;;;5052895;28;20300;-69
2022/03/18 01:14:14;;;;;;;15.98;13.65;;;6.50;99.90;;;;;;5052907;28;20295;-69
2022/03/18 01:16:41;;;;;;;16.67;12.85;;;6.50;99.90;;;;;;5053207;28;20199;-69
2022/03/18 01:19:08;;;;;;;17.10;13.77;;;6.50;99.90;;;;;;5053035;28;20220;-69
2022/03/18 01:21:35;;;;;;;17.55;13.02;;;6.50;99.90;;;;;;5053116;28;20200;-69
2022/03/18 01:24:02;;;;;;;15.85;12.50;;;6.50;99.90;;;;;;5053117;28;20196;-69
2022/03/18 01:26:29;;;;;;;16.40;13.13;;;6.50;99.90;;;;;;5053015;28;20216;-69
2022/03/18 01:28:58;;;;;;;14.23;11.68;;;6.50;99.90;;;;;;5052689;28;20228;-69
2022/03/18 01:31:25;;;;;;;14.18;11.73;;;6.50;99.90;;;;;;5053067;28;20201;-69
2022/03/18 01:33:52;;;;;;;11.68;10.27;;;6.60;99.90;;;;;;5052676;28;20668;-69
2022/03/18 01:36:19;;;;;;;13.68;10.95;;;6.60;99.90;;;;;;5052705;28;20756;-69
2022/03/18 01:38:46;;;;;;;16.52;13.55;;;6.70;99.90;;;;;;5052995;28;20232;-69
2022/03/18 01:41:13;;;;;;;12.40;11.00;;;6.60;99.90;;;;;;5053055;28;20287;-69
2022/03/18 01:43:41;;;;;;;14.45;11.32;;;6.60;99.90;;;;;;5053002;28;20335;-69
2022/03/18 01:46:09;;;;;;;16.67;13.45;;;6.60;99.90;;;;;;5052964;28;20250;-69
2022/03/18 01:48:36;;;;;;;15.35;12.43;;;6.50;99.90;;;;;;5056165;28;20204;-69
2022/03/18 01:51:04;;;;;;;11.73;10.25;;;6.50;99.90;;;;;;5056954;28;20547;-69
2022/03/18 01:53:32;;;;;;;13.48;11.18;;;6.50;99.90;;;;;;5056914;28;20207;-69
2022/03/18 01:55:59;;;;;;;16.05;12.32;;;6.50;99.90;;;;;;5056914;28;20283;-69
2022/03/18 01:58:25;;;;;;;15.82;13.07;;;6.50;99.90;;;;;;5056773;28;20291;-69
2022/03/18 02:00:52;;;;;;;17.27;13.35;;;6.50;99.90;;;;;;5056681;28;20316;-69
2022/03/18 02:03:21;;;;;;;17.23;12.73;;;6.50;99.90;;;;;;5056659;28;20200;-69
2022/03/18 02:05:49;;;;;;;16.90;13.52;;;6.50;99.90;;;;;;5056580;28;20323;-69
2022/03/18 02:08:17;;;;;;;19.77;15.05;;;6.50;99.90;;;;;;5056635;28;20205;-69
2022/03/18 02:10:45;;;;;;;19.33;15.00;;;6.40;99.90;;;;;;5056384;28;20319;-69
2022/03/18 02:13:12;;;;;;;20.05;15.50;;;6.40;99.90;;;;;;5056594;28;20283;-69
2022/03/18 02:15:39;;;;;;;21.58;16.33;;;6.40;99.90;;;;;;5056578;28;20203;-69
2022/03/18 02:18:06;;;;;;;25.13;17.23;;;6.40;99.90;;;;;;5056436;28;20211;-69
2022/03/18 02:20:35;;;;;;;21.80;15.75;;;6.30;99.90;;;;;;5056134;28;20259;-70
2022/03/18 02:23:03;;;;;;;20.35;15.15;;;6.30;99.90;;;;;;5056398;28;20207;-70
2022/03/18 02:25:31;;;;;;;21.73;16.02;;;6.30;99.90;;;;;;5055885;28;20686;-69
2022/03/18 02:28:01;;;;;;;21.40;15.98;;;6.30;99.90;;;;;;5056799;28;20207;-69
2022/03/18 02:30:30;;;;;;;22.67;16.63;;;6.40;99.90;;;;;;5056143;28;20220;-69
2022/03/18 02:32:57;;;;;;;20.33;13.98;;;6.40;99.90;;;;;;5056055;28;20254;-67
2022/03/18 02:35:26;;;;;;;23.02;15.93;;;6.40;99.90;;;;;;5055699;28;20201;-67
2022/03/18 02:37:53;;;;;;;22.92;16.55;;;6.40;99.90;;;;;;5056000;28;20291;-67
2022/03/18 02:40:21;;;;;;;26.48;17.77;;;6.40;99.90;;;;;;5055797;28;20224;-67
2022/03/18 02:42:48;;;;;;;28.23;18.70;;;6.30;99.90;;;;;;5055784;28;20205;-67
2022/03/18 02:45:15;;;;;;;28.30;17.92;;;6.30;99.90;;;;;;5055780;28;20295;-67
2022/03/18 02:47:42;;;;;;;27.10;19.02;;;6.30;99.90;;;;;;5055710;28;20221;-67
2022/03/18 02:50:10;;;;;;;33.08;19.73;;;6.20;99.90;;;;;;5055621;28;20231;-67
2022/03/18 02:52:37;;;;;;;27.00;18.38;;;6.20;99.90;;;;;;5055371;28;20205;-67
2022/03/18 02:55:04;;;;;;;25.27;18.08;;;6.20;99.90;;;;;;5055570;28;20292;-67
2022/03/18 02:57:32;;;;;;;24.17;17.23;;;6.10;99.90;;;;;;5055291;28;20203;-67
2022/03/18 03:00:00;;;;;;;24.83;17.00;;;6.10;99.90;;;;;;5054590;28;20227;-67
2022/03/18 03:02:27;;;;;;;20.70;16.15;;;6.10;99.90;;;;;;5055169;28;20212;-67
2022/03/18 03:10:22;;;;;;;24.23;16.15;;;6.30;99.90;;;;;;5055101;28;20227;-68
2022/03/18 03:12:51;;;;;;;23.08;16.70;;;6.30;99.90;;;;;;5055261;28;20200;-68
2022/03/18 03:15:18;;;;;;;20.17;14.65;;;6.30;99.90;;;;;;5055211;28;20201;-68
2022/03/18 03:17:45;;;;;;;22.92;16.20;;;6.30;99.90;;;;;;5054903;28;20197;-68
2022/03/18 03:20:12;;;;;;;23.33;16.08;;;6.30;99.90;;;;;;5055052;28;20220;-68
2022/03/18 03:22:39;;;;;;;23.95;16.67;;;6.30;99.90;;;;;;5054851;28;20292;-68
2022/03/18 03:25:07;;;;;;;23.38;16.45;;;6.20;99.90;;;;;;5055042;28;20208;-68
2022/03/18 03:27:34;;;;;;;23.77;15.50;;;6.20;99.90;;;;;;5054911;28;20246;-68
2022/03/18 03:30:06;;;;;;;23.30;16.35;;;6.20;99.90;;;;;;5054894;28;20316;-68
2022/03/18 03:32:33;;;;;;;23.00;15.20;;;6.20;99.90;;;;;;5054696;28;20629;-68
2022/03/18 03:35:00;;;;;;;20.58;15.38;;;6.20;99.90;;;;;;5054574;28;20201;-68
2022/03/18 03:37:27;;;;;;;20.02;14.07;;;6.20;99.90;;;;;;5054848;28;20200;-68
2022/03/18 03:39:54;;;;;;;19.58;13.77;;;6.30;99.90;;;;;;5054725;28;20226;-69
2022/03/18 03:42:21;;;;;;;19.52;14.63;;;6.30;99.90;;;;;;5054854;28;20207;-69
2022/03/18 03:44:48;;;;;;;17.45;13.32;;;6.40;99.90;;;;;;5054497;28;20690;-69
2022/03/18 03:47:17;;;;;;;14.13;11.75;;;6.30;99.90;;;;;;5054605;28;20216;-69
2022/03/18 03:49:44;;;;;;;19.73;13.25;;;6.40;99.90;;;;;;5054332;28;20703;-69
2022/03/18 03:52:11;;;;;;;16.88;12.90;;;6.40;99.90;;;;;;5054518;28;20197;-69
2022/03/18 03:54:40;;;;;;;18.42;12.60;;;6.40;99.90;;;;;;5054207;28;20291;-69
2022/03/18 03:57:07;;;;;;;17.17;12.50;;;6.40;99.90;;;;;;5054102;28;20567;-69
2022/03/18 03:59:34;;;;;;;15.63;11.88;;;6.40;99.90;;;;;;5054056;28;20586;-69
2022/03/18 04:02:02;;;;;;;13.38;10.07;;;6.40;99.90;;;;;;5054390;28;20212;-69
2022/03/18 04:04:31;;;;;;;17.67;11.82;;;6.40;99.90;;;;;;5054036;28;20664;-69
2022/03/18 04:06:59;;;;;;;14.75;10.27;;;6.50;99.90;;;;;;5054228;28;20216;-69
2022/03/18 04:09:25;;;;;;;11.88;9.93;;;6.50;99.90;;;;;;5054067;28;20224;-69
2022/03/18 04:11:52;;;;;;;25.38;16.75;;;6.50;99.90;;;;;;5053805;28;20656;-69
2022/03/18 04:14:20;;;;;;;22.05;14.80;;;6.40;99.90;;;;;;5054049;28;20288;-69
2022/03/18 04:16:47;;;;;;;24.92;16.90;;;6.30;99.90;;;;;;5053756;28;20214;-69
2022/03/18 04:19:14;;;;;;;20.98;14.98;;;6.30;99.90;;;;;;5053915;28;20225;-69
2022/03/18 04:21:43;;;;;;;22.13;14.48;;;6.30;99.90;;;;;;5053949;28;20201;-69
2022/03/18 04:24:09;;;;;;;22.08;15.93;;;6.30;99.90;;;;;;5053654;28;20207;-69
2022/03/18 04:26:36;;;;;;;18.60;13.93;;;6.30;99.90;;;;;;5053506;28;20728;-69
2022/03/18 04:29:03;;;;;;;18.40;14.18;;;6.30;99.90;;;;;;5053419;28;20221;-69
2022/03/18 04:31:30;;;;;;;20.83;13.75;;;6.30;99.90;;;;;;5053507;28;20285;-69
2022/03/18 04:33:57;;;;;;;24.00;14.38;;;6.30;99.90;;;;;;5054377;28;20209;-69
2022/03/18 04:36:24;;;;;;;23.95;16.63;;;6.30;99.90;;;;;;5053429;28;20756;-69
2022/03/18 04:38:52;;;;;;;23.05;14.90;;;6.30;99.90;;;;;;5053681;28;20295;-69
2022/03/18 04:41:19;;;;;;;19.27;14.25;;;6.00;99.90;;;;;;5053573;28;20201;-68
2022/03/18 04:43:46;;;;;;;26.10;16.77;;;6.30;99.90;;;;;;5053239;28;20201;-68
2022/03/18 04:46:13;;;;;;;21.73;15.30;;;6.30;99.90;;;;;;5053425;28;20197;-68
2022/03/18 04:48:39;;;;;;;23.73;15.65;;;6.30;99.90;;;;;;5053378;28;20203;-68
2022/03/18 04:51:06;;;;;;;27.83;16.73;;;6.30;99.90;;;;;;5053488;28;20216;-68
2022/03/18 04:53:33;;;;;;;22.90;16.20;;;6.30;99.90;;;;;;5053155;28;20723;-68
2022/03/18 04:56:01;;;;;;;29.85;17.95;;;6.30;99.90;;;;;;5053383;28;20295;-68
2022/03/18 04:58:28;;;;;;;22.67;16.77;;;6.30;99.90;;;;;;5053381;28;20291;-68
2022/03/18 05:00:55;;;;;;;22.35;17.15;;;6.30;99.90;;;;;;5053315;28;20216;-67
2022/03/18 05:03:22;;;;;;;27.85;18.02;;;6.30;99.90;;;;;;5053254;28;20292;-67
2022/03/18 05:05:49;;;;;;;27.25;17.25;;;6.30;99.90;;;;;;5053297;28;20286;-67
2022/03/18 05:08:16;;;;;;;24.83;17.50;;;6.30;99.90;;;;;;5053109;28;20426;-68
2022/03/18 05:10:43;;;;;;;25.48;17.65;;;6.30;99.90;;;;;;5052913;28;20799;-67
2022/03/18 05:13:11;;;;;;;27.27;19.23;;;6.30;99.90;;;;;;5053151;28;20291;-67
2022/03/18 05:15:38;;;;;;;24.60;17.38;;;6.30;99.90;;;;;;5053116;28;20224;-67
2022/03/18 05:18:05;;;;;;;28.88;18.70;;;6.30;99.90;;;;;;5053067;28;20281;-67
2022/03/18 05:20:32;;;;;;;25.27;17.38;;;6.30;99.90;;;;;;5052958;28;20224;-67
2022/03/18 05:22:59;;;;;;;24.70;17.25;;;6.30;99.90;;;;;;5052598;28;20228;-67
2022/03/18 05:25:27;;;;;;;23.10;17.67;;;6.40;99.90;;;;;;5052645;28;20200;-68
2022/03/18 05:27:54;;;;;;;20.27;15.80;;;6.40;99.90;;;;;;5053218;28;20221;-68
2022/03/18 05:30:22;;;;;;;21.65;15.57;;;6.50;99.90;;;;;;5053025;28;20308;-68
2022/03/18 05:32:49;;;;;;;22.63;15.77;;;6.50;99.90;;;;;;5053184;28;20292;-68
2022/03/18 05:35:18;;;;;;;20.73;15.25;;;6.60;99.90;;;;;;5053045;28;20196;-68
2022/03/18 05:37:45;;;;;;;26.67;17.67;;;6.60;99.90;;;;;;5053088;28;20201;-68
2022/03/18 05:40:14;;;;;;;31.85;20.27;;;6.60;99.90;;;;;;5052949;28;20228;-68
2022/03/18 05:42:41;;;;;;;28.98;19.65;;;6.60;99.90;;;;;;5052737;28;20698;-68
2022/03/18 05:45:09;;;;;;;27.58;18.80;;;6.60;99.90;;;;;;5052635;28;20196;-68
2022/03/18 05:47:38;;;;;;;27.90;19.67;;;6.60;99.90;;;;;;5052917;28;20243;-68
2022/03/18 05:50:06;;;;;;;27.95;18.27;;;6.60;99.90;;;;;;5052529;28;20583;-68
2022/03/18 05:52:33;;;;;;;26.88;20.10;;;6.70;99.90;;;;;;5052940;28;20205;-68
2022/03/18 05:55:00;;;;;;;28.58;19.40;;;6.70;99.90;;;;;;5053075;28;20575;-69
2022/03/18 05:57:27;;;;;;;36.08;23.00;;;6.60;99.90;;;;;;5052590;28;20295;-69
2022/03/18 05:59:55;;;;;;;32.70;21.13;;;6.60;99.90;;;;;;5052826;28;20343;-68
2022/03/18 06:02:22;;;;;;;30.35;22.02;;;6.50;99.90;;;;;;5052796;28;20204;-68
2022/03/18 06:04:51;;;;;;;36.05;23.52;;;6.50;99.90;;;;;;5052413;28;20201;-68
2022/03/18 06:07:18;;;;;;;32.78;22.08;;;6.40;99.90;;;;;;5052361;28;20639;-68
2022/03/18 06:12:30;;;;;;;33.13;23.00;;;6.50;99.90;;;;;;5052625;28;20646;-68
2022/03/18 06:14:57;;;;;;;31.23;22.70;;;6.50;99.90;;;;;;5052702;28;20288;-68
2022/03/18 06:17:23;;;;;;;37.45;24.70;;;6.50;99.90;;;;;;5052312;28;20203;-68
2022/03/18 06:19:52;;;;;;;35.17;23.10;;;6.50;99.90;;;;;;5052568;28;20220;-68
2022/03/18 06:22:18;;;;;;;37.10;24.50;;;6.40;99.90;;;;;;5052835;28;20292;-69
2022/03/18 06:24:45;;;;;;;36.45;23.60;;;6.50;99.90;;;;;;5052280;28;20668;-69
2022/03/18 06:27:12;;;;;;;41.25;26.15;;;6.50;99.90;;;;;;5052562;28;20308;-68
2022/03/18 06:29:43;;;;;;;39.25;26.85;;;6.50;99.90;;;;;;5052596;28;20315;-68
2022/03/18 06:32:10;;;;;;;36.47;24.73;;;6.40;99.90;;;;;;5052695;28;20242;-68
2022/03/18 06:34:38;;;;;;;42.65;27.80;;;6.50;99.90;;;;;;5054236;28;20205;-68
2022/03/18 06:37:06;;;;;;;39.83;25.92;;;6.40;99.90;;;;;;5056074;28;20220;-68
2022/03/18 06:39:34;;;;;;;40.13;26.33;;;6.50;99.90;;;;;;5055951;28;20238;-68
2022/03/18 06:42:01;;;;;;;41.95;26.35;;;6.50;99.90;;;;;;5056145;28;20215;-68
2022/03/18 06:44:28;;;;;;;41.33;26.38;;;6.50;99.90;;;;;;5055665;28;20727;-68
2022/03/18 06:46:55;;;;;;;50.22;30.10;;;6.50;99.90;;;;;;5055484;28;20656;-68
2022/03/18 06:49:22;;;;;;;55.47;33.45;;;6.60;99.90;;;;;;5055733;28;20311;-69
2022/03/18 06:51:49;;;;;;;46.53;31.25;;;6.60;99.90;;;;;;5055667;28;20232;-69
2022/03/18 06:54:17;;;;;;;43.05;28.38;;;6.60;99.90;;;;;;5055349;28;20548;-69
2022/03/18 06:56:44;;;;;;;41.00;27.45;;;6.60;99.90;;;;;;5055670;28;20231;-69
2022/03/18 06:59:11;;;;;;;45.05;28.25;;;6.70;99.90;;;;;;5055695;28;20312;-69
2022/03/18 07:01:37;;;;;;;40.67;26.45;;;6.80;99.90;;;;;;5055654;28;20291;-69
2022/03/18 07:04:05;;;;;;;45.38;28.63;;;6.80;99.90;;;;;;5055361;28;20292;-68
2022/03/18 07:06:31;;;;;;;44.67;26.10;;;6.70;99.90;;;;;;5055526;28;20209;-68
2022/03/18 07:08:58;;;;;;;41.58;25.02;;;6.80;99.90;;;;;;5054952;28;20251;-68
2022/03/18 07:11:27;;;;;;;43.30;28.83;;;6.80;99.90;;;;;;5055026;28;20256;-68
2022/03/18 07:13:53;;;;;;;41.05;25.67;;;6.80;99.90;;;;;;5055308;28;20201;-68
2022/03/18 07:19:05;;;;;;;44.55;28.27;;;6.80;99.90;;;;;;5055161;28;20211;-68
2022/03/18 07:21:33;;;;;;;39.50;27.42;;;6.70;99.90;;;;;;5055219;28;20368;-68
2022/03/18 07:24:00;;;;;;;50.22;30.52;;;6.70;99.90;;;;;;5055195;28;20201;-68
2022/03/18 07:26:28;;;;;;;45.22;28.85;;;6.70;99.90;;;;;;5055083;28;20295;-68
2022/03/18 07:28:56;;;;;;;43.90;28.27;;;6.70;99.90;;;;;;5054800;28;20311;-68
2022/03/18 07:31:23;;;;;;;46.92;29.25;;;6.70;99.90;;;;;;5055060;28;20205;-68
2022/03/18 07:33:51;;;;;;;44.20;28.17;;;6.70;99.90;;;;;;5054717;28;20755;-68
2022/03/18 07:36:18;;;;;;;47.22;29.85;;;6.70;99.90;;;;;;5055013;28;20292;-68
2022/03/18 07:38:45;;;;;;;46.97;29.85;;;6.70;99.90;;;;;;5054818;28;20199;-68
2022/03/18 07:41:12;;;;;;;43.75;28.33;;;6.80;99.90;;;;;;5054815;28;20205;-68
2022/03/18 07:43:40;;;;;;;48.25;31.52;;;6.80;99.90;;;;;;5054551;28;20690;-68
2022/03/18 07:46:07;;;;;;;44.75;29.23;;;6.80;99.90;;;;;;5054448;28;20205;-68
2022/03/18 07:48:36;;;;;;;46.88;29.58;;;6.80;99.90;;;;;;5054665;28;20315;-68
2022/03/18 07:51:02;;;;;;;46.08;30.02;;;6.90;99.90;;;;;;5054368;28;20200;-68
2022/03/18 07:53:29;;;;;;;52.25;31.67;;;6.90;99.90;;;;;;5054638;28;20207;-68
2022/03/18 07:55:56;;;;;;;41.83;27.60;;;6.90;99.90;;;;;;5054209;28;20739;-68
2022/03/18 07:58:23;;;;;;;46.38;31.08;;;6.90;99.90;;;;;;5054537;28;20287;-68
2022/03/18 08:00:51;;;;;;;45.08;29.13;;;6.90;99.90;;;;;;5054382;28;20311;-68
2022/03/18 08:03:18;;;;;;;51.20;30.95;;;6.90;99.90;;;;;;5054176;28;20205;-68
2022/03/18 08:05:46;;;;;;;46.25;30.92;;;6.90;99.90;;;;;;5054358;28;20201;-68
2022/03/18 08:08:13;;;;;;;50.38;30.15;;;6.90;99.90;;;;;;5054357;28;20303;-68
2022/03/18 08:10:40;;;;;;;50.40;31.27;;;7.00;99.90;;;;;;5054096;28;20319;-68
2022/03/18 08:13:07;;;;;;;51.20;31.55;;;7.10;99.90;;;;;;5054003;28;20206;-68
2022/03/18 08:15:34;;;;;;;46.45;30.83;;;7.10;99.90;;;;;;5054347;28;20211;-68
2022/03/18 08:18:03;;;;;;;49.85;30.92;;;7.10;99.90;;;;;;5054119;28;20197;-68
2022/03/18 08:20:30;;;;;;;45.85;28.60;;;7.20;99.90;;;;;;5054056;28;20231;-68
2022/03/18 08:22:57;;;;;;;50.03;31.23;;;7.30;99.90;;;;;;5053752;28;20543;-68
2022/03/18 08:25:24;;;;;;;48.85;32.05;;;7.30;99.90;;;;;;5053723;28;20665;-68
2022/03/18 08:27:50;;;;;;;50.83;32.30;;;7.30;99.90;;;;;;5053891;28;20554;-68
2022/03/18 08:30:18;;;;;;;48.72;29.55;;;7.10;99.90;;;;;;5053944;28;20243;-69
2022/03/18 08:32:45;;;;;;;48.42;29.80;;;7.20;99.90;;;;;;5053588;28;20204;-69
2022/03/18 08:35:13;;;;;;;45.33;28.35;;;7.30;99.90;;;;;;5053896;28;20216;-69
2022/03/18 08:37:58;;;;;;;49.58;31.73;;;7.40;99.90;;;;;;5053802;28;20199;-68
2022/03/18 08:40:27;;;;;;;45.13;29.20;;;7.40;99.90;;;;;;5053789;28;20228;-68
2022/03/18 08:42:55;;;;;;;49.45;30.83;;;7.40;99.90;;;;;;5053743;28;20295;-68
2022/03/18 08:45:22;;;;;;;45.75;30.38;;;7.50;99.90;;;;;;5053701;28;20201;-68
2022/03/18 08:47:49;;;;;;;45.80;30.23;;;7.50;99.90;;;;;;5053585;28;20224;-68
2022/03/18 08:50:20;;;;;;;43.50;28.95;;;7.50;99.90;;;;;;5053414;28;20311;-68
2022/03/18 08:52:47;;;;;;;43.50;28.95;;;7.60;99.90;;;;;;5053580;28;20189;-68
2022/03/18 08:55:14;;;;;;;44.40;28.63;;;7.80;99.90;;;;;;5053473;28;20295;-68
2022/03/18 08:57:41;;;;;;;42.25;27.73;;;8.10;99.90;;;;;;5052496;28;20196;-68
2022/03/18 09:00:10;;;;;;;45.70;29.50;;;8.20;99.90;;;;;;5053444;28;20220;-68
2022/03/18 09:02:38;;;;;;;46.45;30.52;;;8.30;99.90;;;;;;5053437;28;20197;-68
2022/03/18 09:05:06;;;;;;;40.70;27.35;;;8.20;99.90;;;;;;5053797;28;20205;-68
2022/03/18 09:07:35;;;;;;;50.40;31.55;;;8.40;99.90;;;;;;5053271;28;20566;-68
2022/03/18 09:10:02;;;;;;;48.90;30.40;;;8.40;99.90;;;;;;5053030;28;20227;-67
2022/03/18 09:12:29;;;;;;;43.88;29.38;;;8.40;99.90;;;;;;5053309;28;20199;-67
2022/03/18 09:14:56;;;;;;;48.90;31.63;;;8.40;99.90;;;;;;5053155;28;20200;-67
2022/03/18 09:17:23;;;;;;;47.05;30.33;;;8.30;99.90;;;;;;5053326;28;20200;-67
2022/03/18 09:19:50;;;;;;;48.75;31.77;;;8.30;99.90;;;;;;5053050;28;20224;-66
2022/03/18 09:22:17;;;;;;;46.42;30.92;;;8.40;99.90;;;;;;5053827;28;20200;-66
2022/03/18 09:24:47;;;;;;;47.92;30.33;;;8.30;99.90;;;;;;5053553;28;20196;-67
2022/03/18 09:27:16;;;;;;;45.13;29.55;;;8.30;99.90;;;;;;5053085;28;20686;-67
2022/03/18 09:29:43;;;;;;;45.78;29.55;;;8.30;99.90;;;;;;5053198;28;20687;-67
2022/03/18 09:32:10;;;;;;;47.85;30.95;;;8.30;99.90;;;;;;5053399;28;20206;-67
2022/03/18 09:34:37;;;;;;;48.40;28.33;;;8.20;99.90;;;;;;5053248;28;20283;-67
2022/03/18 09:37:04;;;;;;;49.45;29.63;;;8.20;99.90;;;;;;5052805;28;20204;-67
2022/03/18 09:39:31;;;;;;;40.85;27.77;;;8.20;99.90;;;;;;5053071;28;20243;-67
2022/03/18 09:42:00;;;;;;;42.10;27.52;;;8.20;99.90;;;;;;5052963;28;20243;-68
2022/03/18 09:44:33;;;;;;;39.22;25.65;;;8.30;99.90;;;;;;5053196;28;20197;-68
2022/03/18 09:47:01;;;;;;;45.95;28.55;;;8.40;99.90;;;;;;5053212;28;20196;-68
2022/03/18 09:49:29;;;;;;;39.17;25.60;;;8.50;99.90;;;;;;5052838;28;20278;-68
2022/03/18 09:51:56;;;;;;;40.78;27.45;;;8.80;99.90;;;;;;5053577;28;20288;-68
2022/03/18 09:54:24;;;;;;;43.95;27.60;;;8.90;99.90;;;;;;5052909;28;20205;-68
2022/03/18 09:56:51;;;;;;;39.20;26.17;;;8.90;99.90;;;;;;5052828;28;20291;-67
2022/03/18 09:59:21;;;;;;;39.05;26.52;;;9.00;99.90;;;;;;5052635;28;20219;-66
2022/03/18 10:01:48;;;;;;;41.47;27.05;;;9.10;99.90;;;;;;5052606;28;20656;-67
2022/03/18 10:04:15;;;;;;;39.83;26.23;;;9.20;99.90;;;;;;5053076;28;20283;-68
2022/03/18 10:06:44;;;;;;;41.08;26.40;;;9.20;99.90;;;;;;5052754;28;20379;-67
2022/03/18 10:09:12;;;;;;;39.90;26.77;;;9.30;99.90;;;;;;5054901;28;20224;-67
2022/03/18 10:11:43;;;;;;;41.88;27.63;;;9.20;99.90;;;;;;5056278;28;20208;-68
2022/03/18 10:14:14;;;;;;;43.58;27.60;;;9.20;99.90;;;;;;5056612;28;20193;-67
2022/03/18 10:16:44;;;;;;;40.50;24.35;;;9.10;99.90;;;;;;5056491;28;20287;-67
2022/03/18 10:19:12;;;;;;;38.35;24.58;;;9.10;99.90;;;;;;5056345;28;20247;-68
2022/03/18 10:21:51;;;;;;;41.30;25.67;;;9.30;99.90;;;;;;5056328;28;20204;-67
2022/03/18 10:24:22;;;;;;;37.40;25.65;;;9.40;99.90;;;;;;5056366;28;20189;-67
2022/03/18 10:26:50;;;;;;;41.10;25.40;;;9.40;99.90;;;;;;5056236;28;20196;-67
2022/03/18 10:29:17;;;;;;;33.00;23.10;;;9.50;99.90;;;;;;5056074;28;20235;-67
2022/03/18 10:32:01;;;;;;;36.85;23.63;;;9.50;99.90;;;;;;5056651;28;20223;-67
2022/03/18 10:37:21;;;;;;;36.60;24.42;;;9.60;99.90;;;;;;5056149;28;20244;-68
2022/03/18 10:39:50;;;;;;;42.30;25.83;;;9.50;99.90;;;;;;5055990;28;20328;-68
2022/03/18 10:42:19;;;;;;;37.58;24.50;;;9.50;99.90;;;;;;5055693;28;20587;-69
2022/03/18 10:44:48;;;;;;;40.13;25.02;;;9.20;99.90;;;;;;5055561;28;20535;-69
2022/03/18 10:47:27;;;;;;;34.25;24.13;;;9.10;99.90;;;;;;5055857;28;20228;-69
2022/03/18 10:49:55;;;;;;;35.78;23.05;;;9.00;99.90;;;;;;5055777;28;20228;-69
2022/03/18 10:52:24;;;;;;;36.28;23.50;;;9.00;99.90;;;;;;5055774;28;20200;-69
2022/03/18 10:54:51;;;;;;;33.65;22.75;;;9.00;99.90;;;;;;5055907;28;20207;-69
2022/03/18 10:57:18;;;;;;;36.00;23.38;;;8.90;99.90;;;;;;5055501;28;20200;-68
2022/03/18 10:59:45;;;;;;;32.15;23.05;;;8.90;99.90;;;;;;5055598;28;20303;-68
2022/03/18 11:02:16;;;;;;;35.35;23.25;;;8.90;99.90;;;;;;5055592;28;20287;-68
2022/03/18 11:04:44;;;;;;;32.15;21.95;;;8.90;99.90;;;;;;5055474;28;20191;-68
2022/03/18 11:12:55;;;;;;;37.78;23.83;;;9.10;99.90;;;;;;5048745;28;20559;-68
2022/03/18 11:15:24;;;;;;;30.75;21.20;;;9.00;99.90;;;;;;5055492;28;20258;-68
2022/03/18 11:17:52;;;;;;;34.35;21.60;;;9.00;99.90;;;;;;5055077;28;20644;-68
2022/03/18 11:20:24;;;;;;;33.90;22.48;;;9.20;99.90;;;;;;5054502;28;20224;-68
2022/03/18 11:22:51;;;;;;;33.50;21.75;;;9.30;99.90;;;;;;5055284;28;20224;-68
2022/03/18 11:25:18;;;;;;;34.40;21.77;;;9.30;99.90;;;;;;5055486;28;20288;-68
2022/03/18 11:27:45;;;;;;;34.10;21.40;;;9.30;99.90;;;;;;5055043;28;20292;-68
2022/03/18 11:30:20;;;;;;;31.83;21.35;;;9.50;99.90;;;;;;5054879;28;20228;-68
2022/03/18 11:33:21;;;;;;;28.88;20.60;;;9.60;99.90;;;;;;5055177;28;20206;-70
2022/03/18 11:36:06;;;;;;;31.45;21.63;;;9.40;99.90;;;;;;5055181;28;20200;-68
2022/03/18 11:38:57;;;;;;;28.10;19.60;;;9.50;99.90;;;;;;5055060;28;20187;-68
2022/03/18 11:42:02;;;;;;;27.88;19.35;;;9.60;99.90;;;;;;5054721;28;20608;-68
2022/03/18 11:44:41;;;;;;;30.92;21.70;;;9.80;99.90;;;;;;5054115;28;20232;-68
2022/03/18 11:47:44;;;;;;;28.38;19.60;;;9.90;99.90;;;;;;5055050;28;20208;-68
2022/03/18 11:50:36;;;;;;;31.42;19.40;;;10.00;99.90;;;;;;5044673;28;20239;-69
2022/03/18 11:53:05;;;;;;;31.00;19.83;;;10.20;99.90;;;;;;5054990;28;20196;-68
2022/03/18 11:55:32;;;;;;;29.63;19.17;;;10.20;96.30;;;;;;5054707;28;20213;-68
2022/03/18 11:57:59;;;;;;;27.65;19.58;;;10.10;99.30;;;;;;5054644;28;20201;-68
2022/03/18 12:00:43;;;;;;;30.05;18.33;;;10.00;99.80;;;;;;5054581;28;20328;-69
2022/03/18 12:03:20;;;;;;;29.33;18.42;;;10.00;99.90;;;;;;5054207;28;20204;-68
2022/03/18 12:05:55;;;;;;;27.65;18.48;;;10.10;99.90;;;;;;5054595;28;20185;-68
2022/03/18 12:08:52;;;;;;;28.65;18.50;;;10.20;98.90;;;;;;5054402;28;20287;-68
2022/03/18 12:11:28;;;;;;;26.75;17.83;;;10.20;95.20;;;;;;5035587;28;20212;-70
2022/03/18 12:13:55;;;;;;;31.13;19.02;;;10.30;93.20;;;;;;5055070;28;20282;-70
2022/03/18 12:16:23;;;;;;;23.85;16.70;;;10.20;85.80;;;;;;5054116;28;20226;-69
2022/03/18 12:19:01;;;;;;;25.48;17.40;;;10.10;91.30;;;;;;5054242;28;20211;-69
2022/03/18 12:21:36;;;;;;;22.80;16.73;;;10.20;90.20;;;;;;5053904;28;20275;-69
2022/03/18 12:24:05;;;;;;;22.92;15.90;;;10.30;90.80;;;;;;5053936;28;20636;-68
2022/03/18 12:26:35;;;;;;;24.70;17.10;;;10.40;93.30;;;;;;5053852;28;20262;-69
2022/03/18 12:29:02;;;;;;;26.45;16.85;;;10.40;91.10;;;;;;5053963;28;20235;-69
2022/03/18 12:31:28;;;;;;;25.58;18.00;;;10.40;90.20;;;;;;5053197;28;20211;-69
2022/03/18 12:34:00;;;;;;;25.75;17.98;;;10.40;85.50;;;;;;5053865;28;20295;-69
2022/03/18 12:36:27;;;;;;;27.00;17.77;;;10.30;89.20;;;;;;5053536;28;20287;-69
2022/03/18 12:39:08;;;;;;;25.30;17.55;;;10.30;87.40;;;;;;5053423;28;20686;-69
2022/03/18 12:41:37;;;;;;;25.05;16.40;;;10.30;88.40;;;;;;5053848;28;20234;-69
2022/03/18 12:44:05;;;;;;;25.40;17.08;;;10.40;81.50;;;;;;5053742;28;20201;-69
2022/03/18 12:46:33;;;;;;;27.88;17.40;;;10.30;84.80;;;;;;5053510;28;20672;-69
2022/03/18 12:49:00;;;;;;;26.75;17.60;;;10.30;86.70;;;;;;5053615;28;20233;-68
2022/03/18 12:51:27;;;;;;;23.88;16.58;;;10.30;82.10;;;;;;5053674;28;20200;-68
2022/03/18 12:53:57;;;;;;;24.27;17.85;;;10.30;83.50;;;;;;5053720;28;20287;-69
2022/03/18 12:56:28;;;;;;;25.60;17.52;;;10.30;88.10;;;;;;5054005;28;20591;-68
2022/03/18 12:58:57;;;;;;;24.05;16.98;;;10.10;88.30;;;;;;5053602;28;20573;-68
2022/03/18 13:01:24;;;;;;;26.92;17.05;;;10.10;90.10;;;;;;5053521;28;20227;-68
2022/03/18 13:03:54;;;;;;;27.27;17.60;;;10.20;91.70;;;;;;5053149;28;20205;-68